Main page
METAR-TAF:

METAR-TAF

Airports :

Baghdad, Iraq

Baghdad International Airport

latitude: 33-15-45N, longitude: 44-14-04E, elevation: 35 m

Current weather observation

The report was made 1 hour and 3 minutes ago, at 20:00 UTC
Wind 5 kt from the Northwest
Temperature 8°C
Humidity 81%
Pressure 1024 hPa
Visibility: 9000 m

METAR: ORBI 202000Z 31005KT 9000 NSC 08/05 Q1024 NOSIG

Time: 00:03 (21:03 UTC)

Forecast

The report was made 4 hours and 3 minutes ago, at 17:00 UTC
Forecast valid from 20 at 18 UTC to 21 at 18 UTC
Wind 8 kt from the Northwest
Visibility: 6000 m
Probability 40%
from 20 at 18 UTC to 20 at 23 UTC
Visibility: 2000 m
widespread dust

TAF: ORBI 201700Z 2018/2118 31008KT 6000 NSC PROB40 2018/2023 2000 DU

Weather observations and forecasts of more than 4000 airports (METAR and TAF reports).

The available stations are represented by yellow and red dots on the map.

Hover mouse over dot to see the name of the station.

Then click to see weather observations and forecasts.

To change the map : click on the green buttons with a black cross to zoom in, on the green button with a dash to zoom out, or on the green arrows for adjacent maps.


METAR-TAF: